Time,TemperatureF,DewpointF,PressureIn,WindDirection,WindDirectionDegrees,WindSpeedMPH,WindSpeedGustMPH,Humidity,HourlyPrecipIn,Conditions,Clouds,dailyrainin,SoftwareType,DateUTC
2013-07-15 00:01:00,74.6,69.8,29.83,ESE,117,4.6,4.6,85,0.00,CLR,,0.00,WeatherDisplay:10.37,2013-07-15 05:01:00,
2013-07-15 00:06:00,74.5,69.7,29.83,ESE,117,5.0,5.0,85,0.00,CLR,,0.00,WeatherDisplay:10.37,2013-07-15 05:06:00,
2013-07-15 00:11:00,74.4,69.6,29.83,ESE,117,5.0,5.0,85,0.00,CLR,,0.00,WeatherDisplay:10.37,2013-07-15 05:11:00,
2013-07-15 00:16:00,74.3,69.5,29.83,ESE,119,3.0,3.0,85,0.00,CLR,,0.00,WeatherDisplay:10.37,2013-07-15 05:16:00,
2013-07-15 00:21:00,74.2,69.7,29.83,ESE,119,0.0,0.0,86,0.00,CLR,,0.00,WeatherDisplay:10.37,2013-07-15 05:21:00,
2013-07-15 00:26:00,74.2,69.7,29.83,ESE,119,4.6,4.6,86,0.00,CLR,,0.00,WeatherDisplay:10.37,2013-07-15 05:26:00,
2013-07-15 00:31:00,74.2,69.7,29.83,ESE,118,3.5,3.5,86,0.00,CLR,,0.00,WeatherDisplay:10.37,2013-07-15 05:31:00,
2013-07-15 00:36:00,74.1,69.6,29.82,ESE,118,3.5,3.5,86,0.00,CLR,,0.00,WeatherDisplay:10.37,2013-07-15 05:36:00,
2013-07-15 00:41:00,74.1,69.6,29.82,ESE,119,2.3,2.3,86,0.00,CLR,,0.00,WeatherDisplay:10.37,2013-07-15 05:41:00,
2013-07-15 00:46:00,74.1,70.0,29.82,ESE,119,3.5,0.0,87,0.00,CLR,,0.00,WeatherDisplay:10.37,2013-07-15 05:46:00,
2013-07-15 00:51:00,74.0,69.9,29.83,ESE,119,0.0,0.0,87,0.00,CLR,,0.00,WeatherDisplay:10.37,2013-07-15 05:51:00,
2013-07-15 00:56:00,74.1,70.0,29.83,ESE,119,0.0,0.0,87,0.00,CLR,,0.00,WeatherDisplay:10.37,2013-07-15 05:56:00,
2013-07-15 01:01:00,74.1,70.0,29.84,ESE,119,0.0,0.0,87,0.00,CLR,,0.00,WeatherDisplay:10.37,2013-07-15 06:01:00,
2013-07-15 01:06:00,74.2,70.1,29.84,ESE,119,0.0,0.0,87,0.00,CLR,,0.00,WeatherDisplay:10.37,2013-07-15 06:06:00,
2013-07-15 01:11:00,74.3,70.2,29.83,ESE,119,2.3,0.0,87,0.00,CLR,,0.00,WeatherDisplay:10.37,2013-07-15 06:11:00,
2013-07-15 01:16:00,74.4,70.3,29.84,ESE,119,0.0,0.0,87,0.00,CLR,,0.00,WeatherDisplay:10.37,2013-07-15 06:16:00,
2013-07-15 01:21:00,74.4,70.6,29.84,ESE,119,0.0,0.0,88,0.00,CLR,,0.00,WeatherDisplay:10.37,2013-07-15 06:21:00,
2013-07-15 01:26:00,74.5,70.7,29.84,ESE,119,2.3,0.0,88,0.00,CLR,,0.00,WeatherDisplay:10.37,2013-07-15 06:26:00,
2013-07-15 01:31:00,74.6,70.8,29.84,ESE,119,0.0,0.0,88,0.00,CLR,,0.00,WeatherDisplay:10.37,2013-07-15 06:31:00,
2013-07-15 01:36:00,74.7,70.9,29.84,ESE,119,2.3,2.3,88,0.00,CLR,,0.00,WeatherDisplay:10.37,2013-07-15 06:36:00,
2013-07-15 01:41:00,74.8,71.0,29.83,ESE,119,0.0,0.0,88,0.00,CLR,,0.00,WeatherDisplay:10.37,2013-07-15 06:41:00,
2013-07-15 01:46:00,74.8,70.7,29.83,ESE,119,4.6,4.6,87,0.00,CLR,,0.00,WeatherDisplay:10.37,2013-07-15 06:46:00,
2013-07-15 01:51:00,74.9,71.1,29.83,ESE,119,1.2,0.0,88,0.00,CLR,,0.00,WeatherDisplay:10.37,2013-07-15 06:51:00,
2013-07-15 01:56:00,74.9,71.1,29.83,ESE,119,3.5,3.5,88,0.00,CLR,,0.00,WeatherDisplay:10.37,2013-07-15 06:56:00,
2013-07-15 02:01:00,75.0,71.2,29.83,ESE,119,0.0,0.0,88,0.00,CLR,,0.00,WeatherDisplay:10.37,2013-07-15 07:01:00,
2013-07-15 02:06:00,75.0,71.2,29.83,ESE,117,5.0,5.0,88,0.00,CLR,,0.00,WeatherDisplay:10.37,2013-07-15 07:06:00,
2013-07-15 02:11:00,75.1,71.3,29.83,ESE,117,0.0,0.0,88,0.00,CLR,,0.00,WeatherDisplay:10.37,2013-07-15 07:11:00,
2013-07-15 02:16:00,75.1,71.3,29.83,ESE,117,2.3,2.3,88,0.00,CLR,,0.00,WeatherDisplay:10.37,2013-07-15 07:16:00,
2013-07-15 02:21:00,75.1,71.3,29.83,ESE,117,3.5,3.5,88,0.00,CLR,,0.00,WeatherDisplay:10.37,2013-07-15 07:21:00,
2013-07-15 02:26:00,75.2,71.4,29.82,ESE,118,5.8,5.8,88,0.00,CLR,,0.00,WeatherDisplay:10.37,2013-07-15 07:26:00,
2013-07-15 02:31:00,75.2,71.4,29.82,ESE,118,3.5,3.5,88,0.00,CLR,,0.00,WeatherDisplay:10.37,2013-07-15 07:31:00,
2013-07-15 02:36:00,75.2,71.4,29.82,ESE,119,3.5,0.0,88,0.00,CLR,,0.00,WeatherDisplay:10.37,2013-07-15 07:36:00,
2013-07-15 02:41:00,75.2,71.4,29.82,ESE,118,1.2,0.0,88,0.00,CLR,,0.00,WeatherDisplay:10.37,2013-07-15 07:41:00,
2013-07-15 02:46:00,75.2,71.4,29.81,ESE,119,4.6,4.6,88,0.00,CLR,,0.00,WeatherDisplay:10.37,2013-07-15 07:46:00,
2013-07-15 02:51:00,75.3,71.8,29.81,ESE,120,1.0,1.0,89,0.00,CLR,,0.00,WeatherDisplay:10.37,2013-07-15 07:51:00,
2013-07-15 02:56:00,75.3,71.8,29.81,SE,128,9.2,9.2,89,0.00,CLR,,0.00,WeatherDisplay:10.37,2013-07-15 07:56:00,
2013-07-15 03:01:00,75.3,71.8,29.81,SE,126,6.9,6.9,89,0.00,CLR,,0.00,WeatherDisplay:10.37,2013-07-15 08:01:00,
2013-07-15 03:06:00,75.3,71.8,29.82,SE,126,0.0,0.0,89,0.00,CLR,,0.00,WeatherDisplay:10.37,2013-07-15 08:06:00,
2013-07-15 03:11:00,75.3,71.8,29.82,SE,126,0.0,0.0,89,0.00,CLR,,0.00,WeatherDisplay:10.37,2013-07-15 08:11:00,
2013-07-15 03:16:00,75.3,71.8,29.82,SE,126,2.3,0.0,89,0.00,CLR,,0.00,WeatherDisplay:10.37,2013-07-15 08:16:00,
2013-07-15 03:21:00,75.3,71.8,29.82,SE,126,4.6,4.6,89,0.00,CLR,,0.00,WeatherDisplay:10.37,2013-07-15 08:21:00,
2013-07-15 03:26:00,75.3,71.8,29.82,SE,126,0.0,0.0,89,0.00,CLR,,0.00,WeatherDisplay:10.37,2013-07-15 08:26:00,
2013-07-15 03:31:00,75.3,71.8,29.82,SE,127,2.3,0.0,89,0.00,CLR,,0.00,WeatherDisplay:10.37,2013-07-15 08:31:00,
2013-07-15 03:36:00,75.3,72.2,29.83,SE,125,6.9,6.9,90,0.00,CLR,,0.00,WeatherDisplay:10.37,2013-07-15 08:36:00,
2013-07-15 03:41:00,75.3,72.2,29.83,ESE,123,4.6,4.6,90,0.00,CLR,,0.00,WeatherDisplay:10.37,2013-07-15 08:41:00,
2013-07-15 03:46:00,75.2,72.1,29.82,SE,138,6.9,6.9,90,0.00,CLR,,0.00,WeatherDisplay:10.37,2013-07-15 08:46:00,
2013-07-15 03:51:00,75.2,72.1,29.82,SE,139,8.1,8.1,90,0.01,RA,,0.01,WeatherDisplay:10.37,2013-07-15 08:51:00,
2013-07-15 03:56:00,75.1,72.3,29.82,SE,134,11.5,11.5,91,0.01,RA,,0.01,WeatherDisplay:10.37,2013-07-15 08:56:00,
2013-07-15 04:01:00,75.0,72.2,29.82,SE,137,10.4,10.4,91,0.01,,,0.01,WeatherDisplay:10.37,2013-07-15 09:01:00,
2013-07-15 04:06:00,75.0,72.2,29.82,SE,140,4.6,4.6,91,0.01,CLR,,0.01,WeatherDisplay:10.37,2013-07-15 09:06:00,
2013-07-15 04:11:00,74.9,72.1,29.82,SE,140,13.8,13.8,91,0.01,CLR,,0.01,WeatherDisplay:10.37,2013-07-15 09:11:00,
2013-07-15 04:16:00,74.9,72.4,29.83,SE,142,5.0,5.0,92,0.01,CLR,,0.01,WeatherDisplay:10.37,2013-07-15 09:16:00,
2013-07-15 04:21:00,74.9,72.4,29.83,SE,141,5.8,5.8,92,0.01,CLR,,0.01,WeatherDisplay:10.37,2013-07-15 09:21:00,
2013-07-15 04:26:00,74.8,72.3,29.83,SE,128,0.0,0.0,92,0.01,CLR,,0.01,WeatherDisplay:10.37,2013-07-15 09:26:00,
2013-07-15 04:31:00,74.8,72.3,29.82,SE,128,4.6,4.6,92,0.01,CLR,,0.01,WeatherDisplay:10.37,2013-07-15 09:31:00,
2013-07-15 04:36:00,74.7,72.2,29.83,SE,128,4.6,0.0,92,0.01,CLR,,0.01,WeatherDisplay:10.37,2013-07-15 09:36:00,
2013-07-15 04:41:00,74.7,72.2,29.83,SE,128,0.0,0.0,92,0.01,CLR,,0.01,WeatherDisplay:10.37,2013-07-15 09:41:00,
2013-07-15 04:46:00,74.6,72.1,29.83,SE,128,1.2,0.0,92,0.01,CLR,,0.01,WeatherDisplay:10.37,2013-07-15 09:46:00,
2013-07-15 04:51:00,74.6,72.1,29.83,SE,128,0.0,0.0,92,0.00,CLR,,0.01,WeatherDisplay:10.37,2013-07-15 09:51:00,
2013-07-15 04:56:00,74.6,72.1,29.83,SE,128,4.6,4.6,92,0.00,CLR,,0.01,WeatherDisplay:10.37,2013-07-15 09:56:00,
2013-07-15 05:01:00,74.5,72.3,29.83,SE,128,8.1,8.1,93,0.00,CLR,,0.01,WeatherDisplay:10.37,2013-07-15 10:01:00,
2013-07-15 05:06:00,74.5,72.3,29.83,SE,137,6.9,6.9,93,0.00,CLR,,0.01,WeatherDisplay:10.37,2013-07-15 10:06:00,
2013-07-15 05:11:00,74.5,72.3,29.83,SE,138,2.3,0.0,93,0.00,CLR,,0.01,WeatherDisplay:10.37,2013-07-15 10:11:00,
2013-07-15 05:16:00,74.4,72.2,29.83,SE,136,9.2,9.2,93,0.00,CLR,,0.01,WeatherDisplay:10.37,2013-07-15 10:16:00,
2013-07-15 05:21:00,74.4,72.2,29.83,SE,132,10.4,10.4,93,0.00,CLR,,0.01,WeatherDisplay:10.37,2013-07-15 10:21:00,
2013-07-15 05:26:00,74.3,72.1,29.83,SE,128,4.6,4.6,93,0.00,CLR,,0.01,WeatherDisplay:10.37,2013-07-15 10:26:00,
2013-07-15 05:31:00,74.3,72.1,29.84,SE,128,3.5,0.0,93,0.00,CLR,,0.01,WeatherDisplay:10.37,2013-07-15 10:31:00,
2013-07-15 05:36:00,74.3,72.1,29.83,SE,128,0.0,0.0,93,0.00,CLR,,0.01,WeatherDisplay:10.37,2013-07-15 10:36:00,
2013-07-15 05:41:00,74.2,72.0,29.84,SE,130,5.8,5.8,93,0.00,CLR,,0.01,WeatherDisplay:10.37,2013-07-15 10:41:00,
2013-07-15 05:46:00,74.2,72.0,29.84,SE,129,5.0,5.0,93,0.00,CLR,,0.01,WeatherDisplay:10.37,2013-07-15 10:46:00,
2013-07-15 05:51:00,74.1,71.9,29.84,SE,128,9.0,9.0,93,0.00,CLR,,0.01,WeatherDisplay:10.37,2013-07-15 10:51:00,
2013-07-15 05:56:00,74.1,71.9,29.84,SE,126,4.6,0.0,93,0.00,CLR,,0.01,WeatherDisplay:10.37,2013-07-15 10:56:00,
2013-07-15 06:01:00,74.1,71.9,29.84,SE,128,9.2,9.2,93,0.00,CLR,,0.01,WeatherDisplay:10.37,2013-07-15 11:01:00,
2013-07-15 06:06:00,74.0,72.2,29.84,SE,128,4.6,4.6,94,0.00,CLR,,0.01,WeatherDisplay:10.37,2013-07-15 11:06:00,
2013-07-15 06:11:00,74.0,72.2,29.83,SE,128,11.5,11.5,94,0.00,CLR,,0.01,WeatherDisplay:10.37,2013-07-15 11:11:00,
2013-07-15 06:16:00,73.9,71.7,29.83,SE,130,11.5,11.5,93,0.00,CLR,,0.01,WeatherDisplay:10.37,2013-07-15 11:16:00,
2013-07-15 06:21:00,73.9,71.7,29.83,SE,132,8.1,8.1,93,0.00,CLR,,0.01,WeatherDisplay:10.37,2013-07-15 11:21:00,
2013-07-15 06:26:00,73.9,72.1,29.84,SE,131,3.5,3.5,94,0.00,CLR,,0.01,WeatherDisplay:10.37,2013-07-15 11:26:00,
2013-07-15 06:31:00,73.9,72.1,29.84,SE,128,0.0,0.0,94,0.00,CLR,,0.01,WeatherDisplay:10.37,2013-07-15 11:31:00,
2013-07-15 06:36:00,73.9,72.1,29.84,SE,126,4.6,4.6,94,0.00,CLR,,0.01,WeatherDisplay:10.37,2013-07-15 11:36:00,
2013-07-15 06:41:00,73.8,72.0,29.84,SE,124,5.8,5.8,94,0.00,CLR,,0.01,WeatherDisplay:10.37,2013-07-15 11:41:00,
2013-07-15 06:46:00,73.8,72.0,29.85,ESE,123,0.0,0.0,94,0.00,CLR,,0.01,WeatherDisplay:10.37,2013-07-15 11:46:00,
2013-07-15 06:51:00,73.8,72.0,29.85,SE,124,0.0,0.0,94,0.00,CLR,,0.01,WeatherDisplay:10.37,2013-07-15 11:51:00,
2013-07-15 06:56:00,73.8,72.0,29.84,ESE,123,9.0,9.0,94,0.00,CLR,,0.01,WeatherDisplay:10.37,2013-07-15 11:56:00,
2013-07-15 07:01:00,73.8,72.0,29.84,ESE,117,3.5,3.5,94,0.00,CLR,,0.01,WeatherDisplay:10.37,2013-07-15 12:01:00,
2013-07-15 07:06:00,73.8,72.0,29.85,ESE,119,4.6,4.6,94,0.00,CLR,,0.01,WeatherDisplay:10.37,2013-07-15 12:06:00,
2013-07-15 07:11:00,73.8,72.0,29.85,ESE,119,0.0,0.0,94,0.00,CLR,,0.01,WeatherDisplay:10.37,2013-07-15 12:11:00,
2013-07-15 07:16:00,73.8,72.0,29.85,ESE,119,0.0,0.0,94,0.00,CLR,,0.01,WeatherDisplay:10.37,2013-07-15 12:16:00,
2013-07-15 07:21:00,73.8,72.0,29.85,ESE,119,3.0,3.0,94,0.00,CLR,,0.01,WeatherDisplay:10.37,2013-07-15 12:21:00,
2013-07-15 07:26:00,73.8,72.0,29.85,ESE,119,5.8,5.8,94,0.00,CLR,,0.01,WeatherDisplay:10.37,2013-07-15 12:26:00,
2013-07-15 07:31:00,73.7,71.9,29.85,ESE,119,4.6,4.6,94,0.00,CLR,,0.01,WeatherDisplay:10.37,2013-07-15 12:31:00,
2013-07-15 07:36:00,73.7,71.9,29.85,ESE,121,5.8,5.8,94,0.00,CLR,,0.01,WeatherDisplay:10.37,2013-07-15 12:36:00,
2013-07-15 07:41:00,73.7,71.9,29.85,SE,124,5.8,5.8,94,0.00,CLR,,0.01,WeatherDisplay:10.37,2013-07-15 12:41:00,
2013-07-15 07:46:00,73.7,71.9,29.85,ESE,121,0.0,0.0,94,0.00,CLR,,0.01,WeatherDisplay:10.37,2013-07-15 12:46:00,
2013-07-15 07:51:00,73.7,71.9,29.86,ESE,121,0.0,0.0,94,0.00,CLR,,0.01,WeatherDisplay:10.37,2013-07-15 12:51:00,
2013-07-15 07:56:00,73.7,71.9,29.86,ESE,121,0.0,0.0,94,0.00,CLR,,0.01,WeatherDisplay:10.37,2013-07-15 12:56:00,
2013-07-15 08:01:00,73.7,71.9,29.86,ESE,121,0.0,0.0,94,0.00,CLR,,0.01,WeatherDisplay:10.37,2013-07-15 13:01:00,
2013-07-15 08:06:00,73.7,71.9,29.86,ESE,123,4.6,4.6,94,0.00,CLR,,0.01,WeatherDisplay:10.37,2013-07-15 13:06:00,
2013-07-15 08:11:00,73.7,71.9,29.87,ESE,122,3.5,3.5,94,0.00,CLR,,0.01,WeatherDisplay:10.37,2013-07-15 13:11:00,
2013-07-15 08:16:00,73.7,71.9,29.87,ESE,123,0.0,0.0,94,0.00,CLR,,0.01,WeatherDisplay:10.37,2013-07-15 13:16:00,
2013-07-15 08:21:00,73.7,71.9,29.87,ESE,122,0.0,0.0,94,0.00,CLR,,0.01,WeatherDisplay:10.37,2013-07-15 13:21:00,
2013-07-15 08:26:00,73.8,72.0,29.87,ESE,122,0.0,0.0,94,0.00,CLR,,0.01,WeatherDisplay:10.37,2013-07-15 13:26:00,
2013-07-15 08:31:00,73.9,72.1,29.88,ESE,123,4.0,4.0,94,0.00,CLR,,0.01,WeatherDisplay:10.37,2013-07-15 13:31:00,
2013-07-15 08:36:00,73.9,72.1,29.88,ESE,123,0.0,0.0,94,0.00,CLR,,0.01,WeatherDisplay:10.37,2013-07-15 13:36:00,
2013-07-15 08:41:00,73.9,72.1,29.88,ESE,123,0.0,0.0,94,0.00,CLR,,0.01,WeatherDisplay:10.37,2013-07-15 13:41:00,
2013-07-15 08:46:00,74.0,72.2,29.88,ESE,122,0.0,0.0,94,0.00,CLR,,0.01,WeatherDisplay:10.37,2013-07-15 13:46:00,
2013-07-15 08:51:00,74.1,72.3,29.88,ESE,123,0.0,0.0,94,0.00,CLR,,0.01,WeatherDisplay:10.37,2013-07-15 13:51:00,
2013-07-15 08:56:00,74.1,72.3,29.88,ESE,122,7.0,7.0,94,0.00,CLR,,0.01,WeatherDisplay:10.37,2013-07-15 13:56:00,
2013-07-15 09:01:00,74.1,72.3,29.88,ESE,121,8.0,8.0,94,0.00,CLR,,0.01,WeatherDisplay:10.37,2013-07-15 14:01:00,
2013-07-15 09:06:00,74.2,72.4,29.88,ESE,118,0.0,0.0,94,0.00,CLR,,0.01,WeatherDisplay:10.37,2013-07-15 14:06:00,
2013-07-15 09:11:00,74.3,72.5,29.88,ESE,123,3.5,3.5,94,0.00,CLR,,0.01,WeatherDisplay:10.37,2013-07-15 14:11:00,
2013-07-15 09:16:00,74.3,72.5,29.89,ESE,123,3.5,3.5,94,0.00,CLR,,0.01,WeatherDisplay:10.37,2013-07-15 14:16:00,
2013-07-15 09:21:00,74.5,72.7,29.89,ESE,123,0.0,0.0,94,0.00,CLR,,0.01,WeatherDisplay:10.37,2013-07-15 14:21:00,
2013-07-15 09:26:00,74.6,72.8,29.89,ESE,123,5.8,5.8,94,0.00,CLR,,0.01,WeatherDisplay:10.37,2013-07-15 14:26:00,
2013-07-15 09:31:00,74.7,72.9,29.89,ESE,123,1.2,0.0,94,0.00,CLR,,0.01,WeatherDisplay:10.37,2013-07-15 14:31:00,
2013-07-15 09:36:00,74.9,73.1,29.89,ESE,123,4.6,4.6,94,0.00,CLR,,0.01,WeatherDisplay:10.37,2013-07-15 14:36:00,
2013-07-15 09:41:00,75.2,73.0,29.89,SE,124,5.8,5.8,93,0.00,CLR,,0.01,WeatherDisplay:10.37,2013-07-15 14:41:00,
2013-07-15 09:46:00,75.3,73.1,29.89,ESE,119,5.8,5.8,93,0.00,CLR,,0.01,WeatherDisplay:10.37,2013-07-15 14:46:00,
2013-07-15 09:51:00,75.6,73.4,29.89,ESE,121,0.0,0.0,93,0.00,CLR,,0.01,WeatherDisplay:10.37,2013-07-15 14:51:00,
2013-07-15 09:56:00,75.9,73.4,29.89,ESE,122,6.9,6.9,92,0.00,CLR,,0.01,WeatherDisplay:10.37,2013-07-15 14:56:00,
2013-07-15 10:02:00,76.2,73.4,29.89,SE,133,9.2,9.2,91,0.00,CLR,,0.01,WeatherDisplay:10.37,2013-07-15 15:02:00,
2013-07-15 10:07:00,76.6,73.4,29.89,SE,129,7.0,7.0,90,0.00,CLR,,0.01,WeatherDisplay:10.37,2013-07-15 15:07:00,
2013-07-15 10:12:00,77.0,73.2,29.89,SE,141,9.2,9.2,88,0.00,CLR,,0.01,WeatherDisplay:10.37,2013-07-15 15:12:00,
2013-07-15 10:17:00,77.3,73.5,29.89,SE,138,5.8,5.8,88,0.00,CLR,,0.01,WeatherDisplay:10.37,2013-07-15 15:17:00,
2013-07-15 10:22:00,77.5,73.3,29.90,SE,138,3.5,3.5,87,0.01,RA,,0.02,WeatherDisplay:10.37,2013-07-15 15:22:00,
2013-07-15 10:27:00,77.7,73.2,29.90,ESE,109,12.0,12.0,86,0.01,RA,,0.02,WeatherDisplay:10.37,2013-07-15 15:27:00,
2013-07-15 10:32:00,77.7,72.8,29.90,SE,139,11.5,11.5,85,0.01,,,0.02,WeatherDisplay:10.37,2013-07-15 15:32:00,
2013-07-15 10:38:00,77.7,72.5,29.90,SE,146,10.4,10.4,84,0.01,CLR,,0.02,WeatherDisplay:10.37,2013-07-15 15:38:00,
2013-07-15 10:43:00,77.8,72.9,29.90,SSE,155,5.8,5.8,85,0.01,CLR,,0.02,WeatherDisplay:10.37,2013-07-15 15:43:00,
2013-07-15 10:48:00,78.0,72.8,29.90,SSE,149,4.6,4.6,84,0.01,CLR,,0.02,WeatherDisplay:10.37,2013-07-15 15:48:00,
2013-07-15 10:53:00,78.2,73.0,29.90,SSE,152,4.6,4.6,84,0.01,CLR,,0.02,WeatherDisplay:10.37,2013-07-15 15:53:00,
2013-07-15 10:58:00,78.3,72.7,29.91,SE,128,4.6,4.6,83,0.01,CLR,,0.02,WeatherDisplay:10.37,2013-07-15 15:58:00,
2013-07-15 11:03:00,78.3,72.3,29.90,SE,136,11.5,11.5,82,0.01,CLR,,0.02,WeatherDisplay:10.37,2013-07-15 16:03:00,
2013-07-15 11:08:00,78.3,72.3,29.91,SE,145,10.4,10.4,82,0.01,CLR,,0.02,WeatherDisplay:10.37,2013-07-15 16:08:00,
2013-07-15 11:13:00,78.3,72.7,29.91,SE,133,10.0,10.0,83,0.01,CLR,,0.02,WeatherDisplay:10.37,2013-07-15 16:13:00,
2013-07-15 11:18:00,78.3,72.3,29.91,SE,132,6.9,6.9,82,0.01,CLR,,0.02,WeatherDisplay:10.37,2013-07-15 16:18:00,
2013-07-15 11:24:00,78.3,72.7,29.91,ESE,121,10.4,10.4,83,0.00,CLR,,0.02,WeatherDisplay:10.37,2013-07-15 16:24:00,
2013-07-15 11:30:00,78.2,72.6,29.91,ESE,121,3.0,9.0,83,0.00,CLR,,0.02,WeatherDisplay:10.37,2013-07-15 16:30:00,
2013-07-15 11:35:00,78.2,72.6,29.91,ESE,122,2.0,7.0,83,0.00,CLR,,0.02,WeatherDisplay:10.37,2013-07-15 16:35:00,
2013-07-15 11:40:00,78.2,72.7,29.91,SE,132,1.0,12.0,83,0.00,CLR,,0.02,WeatherDisplay:10.37,2013-07-15 16:40:00,
2013-07-15 11:45:00,78.4,72.8,29.91,SE,135,2.0,10.0,83,0.00,CLR,,0.02,WeatherDisplay:10.37,2013-07-15 16:45:00,
2013-07-15 11:50:00,78.4,72.8,29.91,SE,137,3.0,14.0,83,0.00,CLR,,0.02,WeatherDisplay:10.37,2013-07-15 16:50:00,
2013-07-15 11:55:00,78.5,72.9,29.91,SE,141,3.0,6.0,83,0.00,CLR,,0.02,WeatherDisplay:10.37,2013-07-15 16:55:00,
2013-07-15 12:00:00,78.5,72.9,29.91,SE,141,6.0,10.0,83,0.00,CLR,,0.02,WeatherDisplay:10.37,2013-07-15 17:00:00,
2013-07-15 12:04:00,78.5,72.9,29.91,SE,140,2.0,6.0,83,0.00,CLR,,0.02,WeatherDisplay:10.37,2013-07-15 17:04:00,
2013-07-15 12:10:00,78.6,73.0,29.91,SE,139,2.0,7.0,83,0.00,CLR,,0.02,WeatherDisplay:10.37,2013-07-15 17:10:00,
2013-07-15 12:15:00,78.6,73.0,29.91,SE,138,1.0,6.0,83,0.00,CLR,,0.02,WeatherDisplay:10.37,2013-07-15 17:15:00,
2013-07-15 12:20:00,78.8,73.2,29.91,SE,134,5.0,5.0,83,0.00,CLR,,0.02,WeatherDisplay:10.37,2013-07-15 17:20:00,
2013-07-15 12:25:00,78.8,72.8,29.92,SE,132,9.2,9.2,82,0.00,CLR,,0.02,WeatherDisplay:10.37,2013-07-15 17:25:00,
2013-07-15 12:30:00,78.9,72.9,29.91,SE,130,5.8,5.8,82,0.00,CLR,,0.02,WeatherDisplay:10.37,2013-07-15 17:30:00,
2013-07-15 12:35:00,78.9,72.9,29.92,SE,125,4.6,4.6,82,0.00,CLR,,0.02,WeatherDisplay:10.37,2013-07-15 17:35:00,
2013-07-15 12:40:00,78.9,72.9,29.91,ESE,120,6.0,6.0,82,0.00,CLR,,0.02,WeatherDisplay:10.37,2013-07-15 17:40:00,
2013-07-15 12:45:00,78.8,73.2,29.92,ESE,120,0.0,0.0,83,0.00,CLR,,0.02,WeatherDisplay:10.37,2013-07-15 17:45:00,
2013-07-15 12:50:00,78.8,73.6,29.92,ESE,120,0.0,0.0,84,0.00,CLR,,0.02,WeatherDisplay:10.37,2013-07-15 17:50:00,
2013-07-15 12:55:00,78.7,73.8,29.91,ESE,120,0.0,0.0,85,0.02,RA,,0.05,WeatherDisplay:10.37,2013-07-15 17:55:00,
2013-07-15 13:01:00,78.4,73.5,29.91,ESE,120,0.0,0.0,85,0.03,RA,,0.06,WeatherDisplay:10.37,2013-07-15 18:01:00,
2013-07-15 13:06:00,78.2,73.7,29.91,ESE,119,3.5,0.0,86,0.03,RA,,0.06,WeatherDisplay:10.37,2013-07-15 18:06:00,
2013-07-15 13:11:00,78.0,73.8,29.91,ESE,120,0.0,0.0,87,0.03,CLR,,0.06,WeatherDisplay:10.37,2013-07-15 18:11:00,
2013-07-15 13:17:00,77.8,73.6,29.91,ESE,120,0.0,0.0,87,0.03,CLR,,0.06,WeatherDisplay:10.37,2013-07-15 18:17:00,
2013-07-15 13:22:00,77.6,73.4,29.91,ESE,119,0.0,0.0,87,0.03,CLR,,0.06,WeatherDisplay:10.37,2013-07-15 18:22:00,
2013-07-15 13:27:00,77.6,73.4,29.91,ESE,119,0.0,0.0,87,0.03,CLR,,0.06,WeatherDisplay:10.37,2013-07-15 18:27:00,
2013-07-15 13:32:00,77.6,73.4,29.91,ESE,119,0.0,0.0,87,0.03,CLR,,0.06,WeatherDisplay:10.37,2013-07-15 18:32:00,
2013-07-15 13:38:00,77.8,73.6,29.91,ESE,117,0.0,0.0,87,0.03,CLR,,0.06,WeatherDisplay:10.37,2013-07-15 18:38:00,
2013-07-15 13:43:00,78.1,73.6,29.91,ESE,117,0.0,0.0,86,0.03,CLR,,0.06,WeatherDisplay:10.37,2013-07-15 18:43:00,
2013-07-15 13:48:00,78.3,73.4,29.91,ESE,116,0.0,0.0,85,0.03,CLR,,0.06,WeatherDisplay:10.37,2013-07-15 18:48:00,
2013-07-15 13:53:00,78.6,73.7,29.91,ESE,115,0.0,0.0,85,0.01,CLR,,0.06,WeatherDisplay:10.37,2013-07-15 18:53:00,
2013-07-15 13:58:00,78.8,73.6,29.90,ESE,116,0.0,0.0,84,0.01,CLR,,0.06,WeatherDisplay:10.37,2013-07-15 18:58:00,
2013-07-15 14:03:00,79.1,73.8,29.90,ESE,115,0.0,0.0,84,0.00,CLR,,0.06,WeatherDisplay:10.37,2013-07-15 19:03:00,
2013-07-15 14:08:00,79.2,73.6,29.91,ESE,115,3.0,3.0,83,0.00,CLR,,0.06,WeatherDisplay:10.37,2013-07-15 19:08:00,
2013-07-15 14:13:00,79.4,73.4,29.90,ESE,115,0.0,0.0,82,0.00,CLR,,0.06,WeatherDisplay:10.37,2013-07-15 19:13:00,
2013-07-15 14:19:00,79.5,73.2,29.90,ESE,116,0.0,0.0,81,0.00,CLR,,0.06,WeatherDisplay:10.37,2013-07-15 19:19:00,
2013-07-15 14:24:00,79.8,73.4,29.90,ESE,116,4.0,4.0,81,0.00,CLR,,0.06,WeatherDisplay:10.37,2013-07-15 19:24:00,
2013-07-15 14:29:00,80.1,73.7,29.89,ESE,115,0.0,0.0,81,0.00,CLR,,0.06,WeatherDisplay:10.37,2013-07-15 19:29:00,
2013-07-15 14:35:00,80.2,73.8,29.90,ESE,115,1.0,6.0,81,0.00,CLR,,0.06,WeatherDisplay:10.37,2013-07-15 19:35:00,
2013-07-15 14:39:00,80.3,73.9,29.90,ESE,109,1.0,8.0,81,0.00,CLR,,0.06,WeatherDisplay:10.37,2013-07-15 19:39:00,
2013-07-15 14:45:00,80.3,74.3,29.90,ESE,105,0.0,0.0,82,0.00,CLR,,0.06,WeatherDisplay:10.37,2013-07-15 19:45:00,
2013-07-15 14:50:00,80.2,74.2,29.90,ESE,105,3.5,3.5,82,0.02,RA,,0.08,WeatherDisplay:10.37,2013-07-15 19:50:00,
2013-07-15 14:56:00,79.6,72.9,29.90,ESE,105,0.0,0.0,80,0.03,RA,,0.09,WeatherDisplay:10.37,2013-07-15 19:56:00,
2013-07-15 15:01:00,79.1,72.0,29.91,ESE,121,5.8,5.8,79,0.05,RA,,0.11,WeatherDisplay:10.37,2013-07-15 20:01:00,
2013-07-15 15:06:00,77.3,69.5,29.92,SE,143,4.6,4.6,77,0.16,RA,,0.25,WeatherDisplay:10.37,2013-07-15 20:06:00,
2013-07-15 15:11:00,74.8,67.5,29.91,West,276,6.0,6.0,78,0.46,RA,,0.53,WeatherDisplay:10.37,2013-07-15 20:11:00,
2013-07-15 15:17:00,73.3,67.8,29.91,West,273,3.5,3.5,83,0.54,RA,,0.60,WeatherDisplay:10.37,2013-07-15 20:17:00,
2013-07-15 15:23:00,72.1,67.7,29.91,SW,216,3.5,3.5,86,0.61,RA,,0.67,WeatherDisplay:10.37,2013-07-15 20:23:00,
2013-07-15 15:28:00,71.5,67.8,29.91,ENE,76,3.5,3.5,88,0.72,RA,,0.78,WeatherDisplay:10.37,2013-07-15 20:28:00,
2013-07-15 15:33:00,71.6,68.5,29.91,ENE,78,3.5,3.5,90,0.74,RA,,0.79,WeatherDisplay:10.37,2013-07-15 20:33:00,
2013-07-15 15:39:00,71.4,68.3,29.90,ENE,78,0.0,0.0,90,0.77,RA,,0.83,WeatherDisplay:10.37,2013-07-15 20:39:00,
2013-07-15 15:44:00,71.2,68.4,29.90,ENE,78,0.0,0.0,91,0.78,RA,,0.84,WeatherDisplay:10.37,2013-07-15 20:44:00,
2013-07-15 15:49:00,71.2,68.4,29.90,ENE,78,2.3,2.3,91,0.77,RA,,0.85,WeatherDisplay:10.37,2013-07-15 20:49:00,
2013-07-15 15:54:00,71.4,69.0,29.89,ENE,76,2.3,2.3,92,0.76,RA,,0.85,WeatherDisplay:10.37,2013-07-15 20:54:00,
2013-07-15 15:59:00,71.5,69.1,29.89,ENE,76,0.0,0.0,92,0.75,,,0.85,WeatherDisplay:10.37,2013-07-15 20:59:00,
2013-07-15 16:05:00,71.6,69.2,29.90,ENE,76,0.0,0.0,92,0.00,CLR,,0.85,WeatherDisplay:10.37,2013-07-15 21:05:00,
2013-07-15 16:10:00,71.7,69.3,29.91,ENE,76,0.0,0.0,92,0.00,CLR,,0.85,WeatherDisplay:10.37,2013-07-15 21:10:00,
2013-07-15 16:15:00,71.7,69.3,29.92,ESE,111,7.0,15.0,92,0.00,CLR,,0.85,WeatherDisplay:10.37,2013-07-15 21:15:00,
2013-07-15 16:20:00,71.0,68.3,29.93,ESE,122,8.0,17.0,91,0.00,CLR,,0.85,WeatherDisplay:10.37,2013-07-15 21:20:00,
2013-07-15 16:25:00,70.2,67.5,29.92,ESE,121,3.0,10.0,91,0.00,CLR,,0.85,WeatherDisplay:10.37,2013-07-15 21:25:00,
2013-07-15 16:30:00,69.9,67.2,29.93,ESE,117,3.0,12.0,91,0.00,CLR,,0.85,WeatherDisplay:10.37,2013-07-15 21:30:00,
2013-07-15 16:35:00,69.8,67.4,29.93,ESE,114,0.0,5.0,92,0.00,CLR,,0.85,WeatherDisplay:10.37,2013-07-15 21:35:00,
2013-07-15 16:39:00,69.8,67.4,29.94,ESE,111,0.0,3.0,92,0.01,RA,,0.86,WeatherDisplay:10.37,2013-07-15 21:39:00,
2013-07-15 16:45:00,69.8,67.3,29.94,ESE,111,0.0,0.0,92,0.00,RA,,0.87,WeatherDisplay:10.37,2013-07-15 21:45:00,
2013-07-15 16:50:00,69.8,67.4,29.93,ESE,110,0.0,0.0,92,0.05,RA,,0.90,WeatherDisplay:10.37,2013-07-15 21:50:00,
2013-07-15 16:55:00,69.8,67.4,29.93,ESE,111,0.0,0.0,92,0.06,RA,,0.91,WeatherDisplay:10.37,2013-07-15 21:55:00,
2013-07-15 17:00:00,69.8,67.4,29.92,ESE,110,3.5,3.5,92,0.06,,,0.91,WeatherDisplay:10.37,2013-07-15 22:00:00,
2013-07-15 17:05:00,69.9,67.8,29.92,East,95,4.0,4.0,93,0.07,RA,,0.92,WeatherDisplay:10.37,2013-07-15 22:05:00,
2013-07-15 17:10:00,70.0,67.9,29.91,East,79,4.6,4.6,93,0.07,RA,,0.93,WeatherDisplay:10.37,2013-07-15 22:10:00,
2013-07-15 17:15:00,69.9,67.8,29.91,ENE,77,0.0,0.0,93,0.08,RA,,0.93,WeatherDisplay:10.37,2013-07-15 22:15:00,
2013-07-15 17:20:00,69.9,67.8,29.91,ENE,76,0.0,0.0,93,0.08,RA,,0.93,WeatherDisplay:10.37,2013-07-15 22:20:00,
2013-07-15 17:26:00,69.9,67.8,29.90,ENE,76,0.0,0.0,93,0.09,RA,,0.94,WeatherDisplay:10.37,2013-07-15 22:26:00,
2013-07-15 17:31:00,70.0,67.9,29.90,ENE,76,0.0,0.0,93,0.09,RA,,0.94,WeatherDisplay:10.37,2013-07-15 22:31:00,
2013-07-15 17:36:00,70.0,67.9,29.90,ENE,76,0.0,0.0,93,0.10,RA,,0.95,WeatherDisplay:10.37,2013-07-15 22:36:00,
2013-07-15 17:41:00,69.9,67.8,29.89,ENE,76,0.0,0.0,93,0.09,RA,,0.95,WeatherDisplay:10.37,2013-07-15 22:41:00,
2013-07-15 17:46:00,69.9,67.8,29.90,ENE,76,0.0,0.0,93,0.09,RA,,0.97,WeatherDisplay:10.37,2013-07-15 22:46:00,
2013-07-15 17:52:00,70.0,67.9,29.90,ENE,76,0.0,0.0,93,0.06,RA,,0.97,WeatherDisplay:10.37,2013-07-15 22:52:00,
2013-07-15 17:57:00,70.0,67.9,29.90,ENE,76,0.0,0.0,93,0.06,CLR,,0.97,WeatherDisplay:10.37,2013-07-15 22:57:00,
2013-07-15 18:02:00,70.1,68.0,29.90,ENE,76,0.0,0.0,93,0.07,RA,,0.98,WeatherDisplay:10.37,2013-07-15 23:02:00,
2013-07-15 18:07:00,70.1,68.0,29.90,ENE,76,0.0,0.0,93,0.06,RA,,0.98,WeatherDisplay:10.37,2013-07-15 23:07:00,
2013-07-15 18:12:00,70.2,68.1,29.90,ENE,76,0.0,0.0,93,0.05,,,0.98,WeatherDisplay:10.37,2013-07-15 23:12:00,
2013-07-15 18:18:00,70.4,68.3,29.90,ENE,76,0.0,0.0,93,0.05,CLR,,0.98,WeatherDisplay:10.37,2013-07-15 23:18:00,
2013-07-15 18:23:00,70.5,68.4,29.91,ENE,76,0.0,0.0,93,0.05,CLR,,0.98,WeatherDisplay:10.37,2013-07-15 23:23:00,
2013-07-15 18:28:00,70.7,68.9,29.90,ENE,76,3.5,3.5,94,0.03,CLR,,0.98,WeatherDisplay:10.37,2013-07-15 23:28:00,
2013-07-15 18:33:00,70.8,69.0,29.90,ENE,76,1.2,0.0,94,0.03,CLR,,0.99,WeatherDisplay:10.37,2013-07-15 23:33:00,
2013-07-15 18:38:00,70.9,69.1,29.90,ENE,76,3.5,3.5,94,0.03,RA,,0.99,WeatherDisplay:10.37,2013-07-15 23:38:00,
2013-07-15 18:43:00,71.0,69.2,29.90,ENE,77,0.0,0.0,94,0.03,RA,,0.99,WeatherDisplay:10.37,2013-07-15 23:43:00,
2013-07-15 18:48:00,71.1,69.3,29.90,ENE,77,0.0,0.0,94,0.02,CLR,,0.99,WeatherDisplay:10.37,2013-07-15 23:48:00,
2013-07-15 18:53:00,71.2,69.4,29.90,ENE,76,0.0,0.0,94,0.02,CLR,,0.99,WeatherDisplay:10.37,2013-07-15 23:53:00,
2013-07-15 18:59:00,71.2,69.4,29.90,ENE,77,0.0,0.0,94,0.02,CLR,,0.99,WeatherDisplay:10.37,2013-07-15 23:59:00,
2013-07-15 19:04:00,71.3,69.5,29.90,ENE,76,0.0,0.0,94,0.01,CLR,,0.99,WeatherDisplay:10.37,2013-07-16 00:04:00,
2013-07-15 19:09:00,71.4,69.6,29.90,ENE,77,0.0,0.0,94,0.01,CLR,,0.99,WeatherDisplay:10.37,2013-07-16 00:09:00,
2013-07-15 19:14:00,71.5,69.7,29.90,ENE,77,0.0,0.0,94,0.01,CLR,,0.99,WeatherDisplay:10.37,2013-07-16 00:14:00,
2013-07-15 19:20:00,71.5,69.7,29.90,ENE,77,0.0,0.0,94,0.00,CLR,,0.99,WeatherDisplay:10.37,2013-07-16 00:20:00,
2013-07-15 19:24:00,71.5,69.7,29.90,ENE,77,0.0,0.0,94,0.00,CLR,,0.99,WeatherDisplay:10.37,2013-07-16 00:24:00,
2013-07-15 19:30:00,71.6,69.8,29.90,ENE,77,0.0,0.0,94,0.00,CLR,,0.99,WeatherDisplay:10.37,2013-07-16 00:30:00,
2013-07-15 19:35:00,71.6,69.8,29.90,ENE,77,0.0,0.0,94,0.00,CLR,,0.99,WeatherDisplay:10.37,2013-07-16 00:35:00,
2013-07-15 19:40:00,71.7,69.9,29.90,ENE,77,0.0,0.0,94,0.00,CLR,,0.99,WeatherDisplay:10.37,2013-07-16 00:40:00,
2013-07-15 19:45:00,71.7,69.9,29.90,ENE,77,0.0,0.0,94,0.00,CLR,,0.99,WeatherDisplay:10.37,2013-07-16 00:45:00,
2013-07-15 19:50:00,71.7,69.6,29.90,ENE,76,0.0,0.0,93,0.00,CLR,,0.99,WeatherDisplay:10.37,2013-07-16 00:50:00,
2013-07-15 19:56:00,71.7,69.6,29.90,ENE,77,0.0,0.0,93,0.00,CLR,,0.99,WeatherDisplay:10.37,2013-07-16 00:56:00,
2013-07-15 20:01:00,71.7,69.6,29.90,ENE,77,0.0,0.0,93,0.00,CLR,,0.99,WeatherDisplay:10.37,2013-07-16 01:01:00,
2013-07-15 20:06:00,71.7,69.6,29.90,ENE,77,0.0,0.0,93,0.00,CLR,,0.99,WeatherDisplay:10.37,2013-07-16 01:06:00,
2013-07-15 20:11:00,71.7,69.6,29.91,ENE,77,0.0,0.0,93,0.00,CLR,,0.99,WeatherDisplay:10.37,2013-07-16 01:11:00,
2013-07-15 20:16:00,71.7,69.6,29.91,ENE,77,0.0,0.0,93,0.00,CLR,,0.99,WeatherDisplay:10.37,2013-07-16 01:16:00,
2013-07-15 20:21:00,71.7,69.6,29.91,ENE,76,0.0,0.0,93,0.00,CLR,,0.99,WeatherDisplay:10.37,2013-07-16 01:21:00,
2013-07-15 20:26:00,71.7,69.6,29.91,ENE,76,0.0,0.0,93,0.00,CLR,,0.99,WeatherDisplay:10.37,2013-07-16 01:26:00,
2013-07-15 20:31:00,71.5,69.4,29.91,ENE,76,0.0,0.0,93,0.00,CLR,,0.99,WeatherDisplay:10.37,2013-07-16 01:31:00,
2013-07-15 20:36:00,71.4,69.3,29.92,ENE,77,0.0,0.0,93,0.00,CLR,,0.99,WeatherDisplay:10.37,2013-07-16 01:36:00,
2013-07-15 20:41:00,71.4,69.3,29.92,ENE,77,0.0,0.0,93,0.00,CLR,,0.99,WeatherDisplay:10.37,2013-07-16 01:41:00,
2013-07-15 20:47:00,71.4,69.3,29.92,ENE,77,0.0,0.0,93,0.00,CLR,,0.99,WeatherDisplay:10.37,2013-07-16 01:47:00,
2013-07-15 20:55:00,71.5,69.4,29.93,ENE,77,0.0,0.0,93,0.00,CLR,,0.99,WeatherDisplay:10.37,2013-07-16 01:55:00,
2013-07-15 22:15:00,71.7,69.6,29.95,ENE,77,0.0,0.0,93,0.00,RA,,0.99,WeatherDisplay:10.37,2013-07-16 03:15:00,
2013-07-15 22:21:00,71.7,69.6,29.96,ENE,77,0.0,0.0,93,0.00,RA,,0.99,WeatherDisplay:10.37,2013-07-16 03:21:00,
2013-07-15 22:26:00,71.7,69.6,29.96,ENE,77,4.6,4.6,93,0.00,CLR,,0.99,WeatherDisplay:10.37,2013-07-16 03:26:00,
2013-07-15 22:31:00,71.7,69.6,29.96,ENE,77,0.0,0.0,93,0.00,CLR,,0.99,WeatherDisplay:10.37,2013-07-16 03:31:00,
2013-07-15 22:36:00,71.7,69.6,29.96,ENE,77,0.0,0.0,93,0.00,CLR,,0.99,WeatherDisplay:10.37,2013-07-16 03:36:00,
2013-07-15 22:41:00,71.7,69.6,29.96,ENE,77,0.0,0.0,93,0.00,CLR,,0.99,WeatherDisplay:10.37,2013-07-16 03:41:00,
2013-07-15 22:46:00,71.7,69.6,29.96,ENE,77,0.0,0.0,93,0.00,CLR,,0.99,WeatherDisplay:10.37,2013-07-16 03:46:00,
2013-07-15 22:52:00,71.7,69.6,29.96,ENE,76,0.0,0.0,93,0.00,CLR,,0.99,WeatherDisplay:10.37,2013-07-16 03:52:00,
2013-07-15 22:57:00,71.7,69.6,29.96,ENE,76,4.0,4.0,93,0.00,CLR,,0.99,WeatherDisplay:10.37,2013-07-16 03:57:00,
2013-07-15 23:01:00,71.7,69.6,29.96,ENE,76,0.0,0.0,93,0.00,CLR,,0.99,WeatherDisplay:10.37,2013-07-16 04:01:00,
2013-07-15 23:02:00,71.7,69.6,29.96,ENE,77,3.5,3.5,93,0.00,CLR,,0.99,WeatherDisplay:10.37,2013-07-16 04:02:00,
2013-07-15 23:07:00,71.6,69.5,29.96,ENE,77,1.2,1.2,93,0.00,CLR,,0.99,WeatherDisplay:10.37,2013-07-16 04:07:00,
2013-07-15 23:12:00,71.7,69.6,29.97,ENE,77,0.0,0.0,93,0.00,CLR,,0.99,WeatherDisplay:10.37,2013-07-16 04:12:00,
2013-07-15 23:17:00,71.7,69.6,29.97,ENE,77,0.0,0.0,93,0.00,CLR,,0.99,WeatherDisplay:10.37,2013-07-16 04:17:00,
2013-07-15 23:22:00,71.7,69.6,29.97,ENE,76,0.0,0.0,93,0.00,CLR,,0.99,WeatherDisplay:10.37,2013-07-16 04:22:00,
2013-07-15 23:27:00,71.7,69.6,29.97,ENE,77,0.0,0.0,93,0.00,CLR,,0.99,WeatherDisplay:10.37,2013-07-16 04:27:00,
2013-07-15 23:32:00,71.7,69.6,29.97,ENE,77,0.0,0.0,93,0.00,CLR,,0.99,WeatherDisplay:10.37,2013-07-16 04:32:00,
2013-07-15 23:37:00,71.7,69.6,29.97,ENE,76,0.0,0.0,93,0.00,CLR,,0.99,WeatherDisplay:10.37,2013-07-16 04:37:00,
2013-07-15 23:42:00,71.7,69.6,29.97,ENE,77,0.0,0.0,93,0.00,CLR,,0.99,WeatherDisplay:10.37,2013-07-16 04:42:00,
2013-07-15 23:47:00,71.7,69.6,29.97,ENE,76,0.0,0.0,93,0.00,CLR,,0.99,WeatherDisplay:10.37,2013-07-16 04:47:00,
2013-07-15 23:52:00,71.7,69.6,29.97,ENE,76,3.0,3.0,93,0.00,CLR,,0.99,WeatherDisplay:10.37,2013-07-16 04:52:00,
2013-07-15 23:57:00,71.7,69.6,29.97,ENE,76,3.5,0.0,93,0.00,CLR,,0.99,WeatherDisplay:10.37,2013-07-16 04:57:00,